Time;durP1;ratioP1;P1;durP2;ratioP2;P2;SDS_P1;SDS_P2;PMS_P1;PMS_P2;Temp;Humidity;BMP_temperature;BMP_pressure;BME280_temperature;BME280_humidity;BME280_pressure;Samples;Min_cycle;Max_cycle;Signal;HPM_P1;HPM_P2
2021/08/05 00:02:37;;;;;;;23.27;11.30;;;13.80;99.90;;;;;;5029692;28;20421;-58
2021/08/05 00:05:07;;;;;;;14.43;5.13;;;13.80;99.90;;;;;;5028398;28;20811;-58
2021/08/05 00:07:44;;;;;;;4.80;2.80;;;13.80;99.90;;;;;;5028742;28;20857;-59
2021/08/05 00:10:17;;;;;;;5.33;3.17;;;13.80;99.90;;;;;;5032397;28;20772;-59
2021/08/05 00:12:43;;;;;;;4.00;2.90;;;13.80;99.90;;;;;;5029243;28;20842;-61
2021/08/05 00:15:09;;;;;;;4.60;3.40;;;13.70;99.90;;;;;;5028296;28;20421;-57
2021/08/05 00:17:38;;;;;;;3.27;2.97;;;13.70;99.90;;;;;;5029254;28;20183;-59
2021/08/05 00:20:07;;;;;;;5.07;3.27;;;13.70;99.90;;;;;;5028625;28;20600;-59
2021/08/05 00:22:36;;;;;;;4.50;3.30;;;13.70;99.90;;;;;;5030226;28;20513;-59
2021/08/05 00:25:11;;;;;;;4.37;2.77;;;13.70;99.90;;;;;;5020542;28;20457;-58
2021/08/05 00:27:37;;;;;;;5.80;3.30;;;13.70;99.90;;;;;;5029870;28;20448;-59
2021/08/05 00:30:06;;;;;;;7.87;3.90;;;13.70;99.90;;;;;;5021375;28;20899;-58
2021/08/05 00:32:37;;;;;;;6.97;3.77;;;13.70;99.90;;;;;;5028767;28;20215;-58
2021/08/05 00:35:17;;;;;;;4.37;2.60;;;13.70;99.90;;;;;;5019504;28;20435;-58
2021/08/05 00:37:50;;;;;;;5.87;2.73;;;13.70;99.90;;;;;;5050679;23;20492;-55
2021/08/05 00:40:24;;;;;;;7.93;3.10;;;13.70;99.90;;;;;;5025636;28;20484;-55
2021/08/05 00:42:50;;;;;;;5.90;3.00;;;13.70;99.90;;;;;;5018422;28;20422;-54
2021/08/05 00:45:32;;;;;;;3.80;2.90;;;13.60;99.90;;;;;;5028416;28;20508;-56
2021/08/05 00:48:07;;;;;;;4.03;2.60;;;13.60;99.90;;;;;;5029706;28;20195;-55
2021/08/05 00:50:41;;;;;;;6.00;2.90;;;13.60;99.90;;;;;;5028289;28;20821;-56
2021/08/05 00:53:20;;;;;;;;;;;;;;;;;;;;;
2021/08/05 00:55:51;;;;;;;3.40;2.77;;;13.60;99.90;;;;;;5028314;28;20399;-56
2021/08/05 00:58:30;;;;;;;4.97;2.93;;;13.60;99.90;;;;;;5029628;28;20427;-55
2021/08/05 01:01:08;;;;;;;3.57;2.83;;;13.60;99.90;;;;;;5028242;28;20437;-54
2021/08/05 01:03:45;;;;;;;2.60;2.40;;;13.60;99.90;;;;;;5026291;28;20418;-55
2021/08/05 01:06:55;;;;;;;5.03;2.60;;;13.60;99.90;;;;;;5029470;28;20390;-55
2021/08/05 01:09:49;;;;;;;6.57;3.20;;;13.60;99.90;;;;;;5003306;28;20465;-55
2021/08/05 01:13:06;;;;;;;5.47;3.37;;;13.60;99.90;;;;;;5016664;28;21038;-56
2021/08/05 01:15:51;;;;;;;2.80;2.60;;;13.60;99.90;;;;;;5028186;28;20434;-55
2021/08/05 01:18:26;;;;;;;4.93;2.80;;;13.60;99.90;;;;;;5028183;28;20446;-56
2021/08/05 01:21:12;;;;;;;4.97;3.60;;;13.50;99.90;;;;;;5028061;28;20859;-56
2021/08/05 01:23:54;;;;;;;5.67;3.03;;;13.50;99.90;;;;;;5026475;28;20426;-56
2021/08/05 01:26:51;;;;;;;3.30;3.00;;;13.60;99.90;;;;;;5024677;28;20411;-55
2021/08/05 01:29:23;;;;;;;3.63;2.73;;;13.50;99.90;;;;;;5027182;28;20407;-57
2021/08/05 01:31:49;;;;;;;4.17;2.90;;;13.50;99.90;;;;;;5032524;28;20516;-56
2021/08/05 01:34:37;;;;;;;3.33;3.00;;;13.50;99.90;;;;;;5023240;28;21045;-57
2021/08/05 01:37:07;;;;;;;2.90;2.47;;;13.50;99.90;;;;;;5026651;28;20571;-56
2021/08/05 01:39:39;;;;;;;4.13;2.70;;;13.50;99.90;;;;;;5032122;28;20418;-56
2021/08/05 01:42:11;;;;;;;3.30;2.70;;;13.50;99.90;;;;;;5032195;28;20433;-57
2021/08/05 01:44:43;;;;;;;4.60;2.97;;;13.50;99.90;;;;;;5029578;28;20942;-54
2021/08/05 01:47:33;;;;;;;3.07;2.40;;;13.50;99.90;;;;;;5032713;28;20438;-56
2021/08/05 01:50:02;;;;;;;3.20;2.67;;;13.50;99.90;;;;;;5025654;28;20668;-55
2021/08/05 01:52:33;;;;;;;5.13;3.27;;;13.50;99.90;;;;;;5017684;28;21054;-56
2021/08/05 01:55:03;;;;;;;4.43;2.90;;;13.50;99.90;;;;;;5015192;28;20942;-56
2021/08/05 01:57:40;;;;;;;5.77;3.23;;;13.50;99.90;;;;;;5031844;28;20452;-56
2021/08/05 02:00:08;;;;;;;3.90;3.00;;;13.50;99.90;;;;;;5026845;28;20426;-56
2021/08/05 02:02:45;;;;;;;7.03;3.03;;;13.50;99.90;;;;;;5021505;28;20622;-56
2021/08/05 02:05:39;;;;;;;4.40;2.70;;;13.50;99.90;;;;;;5031041;28;20402;-56
2021/08/05 02:08:22;;;;;;;3.50;3.10;;;13.50;99.90;;;;;;5032088;28;20454;-57
2021/08/05 02:10:56;;;;;;;4.43;3.03;;;13.50;99.90;;;;;;5032022;28;20453;-57
2021/08/05 02:13:40;;;;;;;4.87;3.03;;;13.50;99.90;;;;;;5031291;28;20523;-53
2021/08/05 02:16:12;;;;;;;4.87;3.53;;;13.50;99.90;;;;;;5030111;28;20426;-56
2021/08/05 02:18:45;;;;;;;5.90;3.47;;;13.50;99.90;;;;;;5030753;28;20524;-53
2021/08/05 02:21:15;;;;;;;6.90;3.00;;;13.50;99.90;;;;;;5032167;28;20434;-56
2021/08/05 02:23:45;;;;;;;3.77;3.10;;;13.50;99.90;;;;;;5030127;28;20411;-57
2021/08/05 02:26:15;;;;;;;4.13;3.57;;;13.50;99.90;;;;;;5033659;28;20446;-57
2021/08/05 02:28:59;;;;;;;5.73;3.17;;;13.50;99.90;;;;;;5035606;28;20716;-57
2021/08/05 02:31:30;;;;;;;10.50;3.30;;;13.50;99.90;;;;;;5030002;28;20552;-57
2021/08/05 02:34:00;;;;;;;3.50;2.93;;;13.50;99.90;;;;;;5028263;28;20861;-56
2021/08/05 02:36:32;;;;;;;4.20;3.37;;;13.50;99.90;;;;;;5024052;28;20530;-56
2021/08/05 02:39:00;;;;;;;4.90;3.43;;;13.50;99.90;;;;;;5023161;28;20464;-55
2021/08/05 02:41:30;;;;;;;4.03;3.60;;;13.50;99.90;;;;;;5031236;28;20422;-54
2021/08/05 02:44:00;;;;;;;4.80;3.17;;;13.50;99.90;;;;;;5030403;28;20452;-56
2021/08/05 02:46:33;;;;;;;8.03;3.40;;;13.50;99.90;;;;;;5031704;28;20399;-54
2021/08/05 02:48:59;;;;;;;5.10;3.43;;;13.50;99.90;;;;;;5030164;28;20716;-56
2021/08/05 02:51:33;;;;;;;5.53;2.90;;;13.50;99.90;;;;;;5030910;28;20536;-55
2021/08/05 02:53:59;;;;;;;4.87;3.50;;;13.50;99.90;;;;;;5030471;28;20178;-56
2021/08/05 02:56:38;;;;;;;6.00;3.40;;;13.50;99.90;;;;;;5032034;28;20702;-56
2021/08/05 02:59:03;;;;;;;6.90;3.77;;;13.50;99.90;;;;;;5030014;28;20604;-57
2021/08/05 03:01:40;;;;;;;6.77;3.10;;;13.50;99.90;;;;;;5030955;28;20461;-56
2021/08/05 03:04:09;;;;;;;5.03;4.00;;;13.40;99.90;;;;;;5029777;28;20198;-56
2021/08/05 03:06:45;;;;;;;10.03;4.13;;;13.50;99.90;;;;;;5030388;28;20445;-56
2021/08/05 03:09:11;;;;;;;4.47;3.60;;;13.40;99.90;;;;;;5027645;28;20476;-56
2021/08/05 03:11:40;;;;;;;5.50;4.03;;;13.50;99.90;;;;;;5043623;28;20450;-56
2021/08/05 03:14:08;;;;;;;4.30;3.47;;;13.50;99.90;;;;;;5029516;28;20210;-56
2021/08/05 03:16:39;;;;;;;6.43;4.60;;;13.50;99.90;;;;;;5030570;28;20545;-56
2021/08/05 03:19:04;;;;;;;5.90;4.63;;;13.50;99.90;;;;;;5030214;28;20435;-57
2021/08/05 03:21:42;;;;;;;4.97;3.90;;;13.50;99.90;;;;;;5027812;28;20429;-55
2021/08/05 03:24:31;;;;;;;6.10;3.77;;;13.50;99.90;;;;;;5028692;28;20214;-57
2021/08/05 03:26:59;;;;;;;4.60;4.07;;;13.50;99.90;;;;;;5016898;28;20533;-56
2021/08/05 03:29:31;;;;;;;10.83;4.47;;;13.50;99.90;;;;;;5016922;28;20403;-56
2021/08/05 03:32:13;;;;;;;7.23;3.90;;;13.50;99.90;;;;;;5021585;28;20465;-57
2021/08/05 03:34:54;;;;;;;6.00;4.00;;;13.50;99.90;;;;;;5028437;28;20426;-57
2021/08/05 03:37:19;;;;;;;5.70;3.73;;;13.40;99.90;;;;;;5030779;28;20495;-57
2021/08/05 03:39:45;;;;;;;5.00;3.87;;;13.40;99.90;;;;;;5027128;28;20506;-54
2021/08/05 03:42:11;;;;;;;5.87;4.33;;;13.40;99.90;;;;;;5029728;28;20652;-57
2021/08/05 03:44:36;;;;;;;4.70;3.90;;;13.40;99.90;;;;;;5030175;28;20326;-56
2021/08/05 03:47:02;;;;;;;7.27;4.53;;;13.40;99.90;;;;;;5030596;28;20211;-56
2021/08/05 03:49:28;;;;;;;7.17;4.47;;;13.30;99.90;;;;;;5030368;28;20168;-57
2021/08/05 03:51:53;;;;;;;7.87;4.10;;;13.30;99.90;;;;;;5028667;28;20214;-56
2021/08/05 03:54:19;;;;;;;5.90;4.07;;;13.30;99.90;;;;;;5029078;28;20191;-54
2021/08/05 03:56:45;;;;;;;9.03;3.93;;;13.30;99.90;;;;;;5027480;28;20574;-54
2021/08/05 03:59:10;;;;;;;6.57;3.90;;;13.30;99.90;;;;;;5027016;28;20173;-57
2021/08/05 04:01:36;;;;;;;5.10;3.97;;;13.30;99.90;;;;;;5019344;28;20180;-56
2021/08/05 04:04:01;;;;;;;7.20;4.50;;;13.30;99.90;;;;;;5023047;28;20190;-57
2021/08/05 04:06:27;;;;;;;5.03;4.10;;;13.30;99.90;;;;;;5019517;28;20194;-57
2021/08/05 04:08:53;;;;;;;4.83;4.30;;;13.30;99.90;;;;;;5021680;28;20187;-55
2021/08/05 04:11:18;;;;;;;13.67;3.63;;;13.30;99.90;;;;;;5021128;28;20208;-56
2021/08/05 04:13:44;;;;;;;5.27;4.23;;;13.30;99.90;;;;;;5023037;28;20191;-54
2021/08/05 04:16:10;;;;;;;8.30;3.90;;;13.30;99.90;;;;;;5021139;28;20767;-55
2021/08/05 04:18:35;;;;;;;4.27;3.80;;;13.30;99.90;;;;;;5027215;28;20262;-56
2021/08/05 04:21:01;;;;;;;6.07;3.57;;;13.20;99.90;;;;;;5024213;28;21060;-56
2021/08/05 04:23:26;;;;;;;4.93;3.27;;;13.20;99.90;;;;;;5018790;28;20191;-56
2021/08/05 04:25:52;;;;;;;10.10;4.40;;;13.20;99.90;;;;;;5019620;28;20561;-57
2021/08/05 04:28:18;;;;;;;5.40;3.73;;;13.20;99.90;;;;;;5026536;28;20199;-57
2021/08/05 04:30:44;;;;;;;6.37;3.67;;;13.20;99.90;;;;;;5026031;28;20291;-57
2021/08/05 04:33:10;;;;;;;6.83;4.50;;;13.20;99.90;;;;;;5025103;28;20469;-58
2021/08/05 04:35:36;;;;;;;6.17;4.23;;;13.20;99.90;;;;;;5025187;28;20187;-55
2021/08/05 04:38:02;;;;;;;5.73;3.40;;;13.20;99.90;;;;;;5023807;28;20208;-56
2021/08/05 04:40:29;;;;;;;10.30;3.70;;;13.20;99.90;;;;;;5025652;28;20253;-54
2021/08/05 04:42:55;;;;;;;4.90;3.10;;;13.20;99.90;;;;;;5026920;28;21034;-57
2021/08/05 04:45:22;;;;;;;3.60;3.17;;;13.20;99.90;;;;;;5033206;28;20438;-58
2021/08/05 04:47:59;;;;;;;5.60;3.27;;;13.20;99.90;;;;;;5047745;28;20504;-59
2021/08/05 04:50:27;;;;;;;5.00;3.00;;;13.20;99.90;;;;;;5040056;28;20433;-57
2021/08/05 04:52:53;;;;;;;3.17;2.77;;;13.20;99.90;;;;;;5029347;28;20466;-57
2021/08/05 04:55:19;;;;;;;3.30;3.00;;;13.20;99.90;;;;;;5022928;28;20416;-54
2021/08/05 04:57:55;;;;;;;5.13;3.00;;;13.20;99.90;;;;;;5023583;28;20808;-58
2021/08/05 05:00:26;;;;;;;4.20;3.07;;;13.20;99.90;;;;;;5028428;28;20306;-56
2021/08/05 05:02:52;;;;;;;6.13;3.47;;;13.20;99.90;;;;;;5029526;28;20426;-56
2021/08/05 05:05:19;;;;;;;6.93;4.00;;;13.30;99.90;;;;;;5027038;28;20456;-56
2021/08/05 05:07:45;;;;;;;4.97;3.40;;;13.30;99.90;;;;;;5029467;28;20805;-56
2021/08/05 05:10:12;;;;;;;7.47;3.90;;;13.30;99.90;;;;;;5029159;28;20422;-56
2021/08/05 05:12:38;;;;;;;5.03;3.30;;;13.30;99.90;;;;;;5028227;28;20454;-56
2021/08/05 05:15:04;;;;;;;5.03;3.40;;;13.30;99.90;;;;;;5027958;28;20425;-56
2021/08/05 05:17:30;;;;;;;5.17;2.93;;;13.30;99.90;;;;;;5028178;28;20663;-56
2021/08/05 05:19:55;;;;;;;2.97;2.70;;;13.30;99.90;;;;;;5028466;28;20417;-56
2021/08/05 05:22:22;;;;;;;6.23;3.60;;;13.30;99.90;;;;;;5028260;28;20187;-57
2021/08/05 05:24:47;;;;;;;3.87;3.10;;;13.30;99.90;;;;;;5027562;28;20658;-57
2021/08/05 05:27:13;;;;;;;3.47;3.10;;;13.30;99.90;;;;;;5027802;28;20521;-53
2021/08/05 05:29:40;;;;;;;5.73;3.33;;;13.40;99.90;;;;;;5025712;28;20207;-57
2021/08/05 05:32:06;;;;;;;3.73;3.00;;;13.40;99.90;;;;;;5028801;28;20264;-56
2021/08/05 05:34:32;;;;;;;3.83;2.80;;;13.40;99.90;;;;;;5027608;28;20933;-56
2021/08/05 05:36:58;;;;;;;8.53;3.33;;;13.40;99.90;;;;;;5028859;28;20442;-54
2021/08/05 05:39:23;;;;;;;3.97;3.20;;;13.50;99.90;;;;;;5028156;28;20234;-56
2021/08/05 05:41:49;;;;;;;4.47;2.97;;;13.50;99.90;;;;;;5019856;28;20199;-54
2021/08/05 05:44:14;;;;;;;4.90;3.43;;;13.60;99.90;;;;;;5022170;28;20186;-56
2021/08/05 05:46:40;;;;;;;4.77;3.57;;;13.60;99.90;;;;;;5026977;28;20278;-56
2021/08/05 05:49:06;;;;;;;5.80;3.10;;;13.60;99.90;;;;;;5027022;28;20270;-56
2021/08/05 05:51:32;;;;;;;4.23;2.63;;;13.70;99.90;;;;;;5028762;28;20211;-54
2021/08/05 05:53:57;;;;;;;4.33;3.47;;;13.70;99.90;;;;;;5027691;28;20168;-54
2021/08/05 05:56:23;;;;;;;5.13;3.10;;;13.70;99.90;;;;;;5027813;28;20259;-56
2021/08/05 05:58:49;;;;;;;3.97;3.17;;;13.80;99.90;;;;;;5028871;28;20234;-57
2021/08/05 06:01:14;;;;;;;4.47;3.03;;;13.80;99.90;;;;;;5018389;28;20210;-56
2021/08/05 06:03:40;;;;;;;3.20;2.90;;;13.90;99.90;;;;;;5007982;28;20715;-56
2021/08/05 06:06:05;;;;;;;5.80;2.50;;;13.90;99.90;;;;;;5017757;28;20187;-54
2021/08/05 06:08:31;;;;;;;7.70;3.30;;;13.90;99.90;;;;;;5022767;28;20591;-57
2021/08/05 06:10:57;;;;;;;6.53;3.20;;;14.00;99.90;;;;;;5028519;28;20187;-57
2021/08/05 06:13:23;;;;;;;4.37;2.93;;;14.00;99.90;;;;;;5030584;28;20509;-56
2021/08/05 06:15:48;;;;;;;6.73;3.00;;;14.10;99.90;;;;;;5032113;28;20180;-54
2021/08/05 06:18:14;;;;;;;3.77;3.20;;;14.10;99.90;;;;;;5032696;28;20188;-56
2021/08/05 06:20:40;;;;;;;5.33;2.73;;;14.10;99.90;;;;;;5031376;28;20203;-56
2021/08/05 06:23:08;;;;;;;5.57;2.80;;;14.20;99.90;;;;;;5030953;28;20232;-57
2021/08/05 06:25:35;;;;;;;4.57;3.20;;;14.20;99.90;;;;;;5032040;28;20187;-57
2021/08/05 06:28:01;;;;;;;5.20;3.17;;;14.20;99.90;;;;;;5028721;28;20446;-55
2021/08/05 06:30:27;;;;;;;3.87;2.80;;;14.20;99.90;;;;;;5031676;28;20796;-57
2021/08/05 06:32:53;;;;;;;3.20;2.90;;;14.30;99.90;;;;;;5031276;28;20810;-56
2021/08/05 06:35:19;;;;;;;3.17;2.87;;;14.30;99.90;;;;;;5029997;28;20267;-58
2021/08/05 06:37:47;;;;;;;5.90;3.00;;;14.40;99.90;;;;;;5052962;23;20587;-58
2021/08/05 06:40:13;;;;;;;4.80;3.17;;;14.40;99.90;;;;;;5030862;28;20445;-58
2021/08/05 06:42:39;;;;;;;3.27;2.83;;;14.50;99.90;;;;;;5031916;28;20914;-58
2021/08/05 06:45:07;;;;;;;8.20;3.80;;;14.60;99.90;;;;;;5029946;28;20179;-58
2021/08/05 06:47:34;;;;;;;5.00;3.43;;;14.70;99.90;;;;;;5028887;28;20454;-59
2021/08/05 06:50:00;;;;;;;4.77;3.37;;;14.80;99.90;;;;;;5022637;28;20765;-57
2021/08/05 06:52:26;;;;;;;6.97;3.10;;;14.80;99.90;;;;;;5017455;28;20889;-58
2021/08/05 06:54:52;;;;;;;5.23;3.70;;;14.90;99.90;;;;;;5029459;28;20946;-59
2021/08/05 06:57:18;;;;;;;4.50;3.53;;;15.00;99.90;;;;;;5030882;28;20528;-58
2021/08/05 06:59:43;;;;;;;4.73;3.13;;;15.00;99.90;;;;;;5029927;28;20183;-58
2021/08/05 07:02:09;;;;;;;7.80;3.77;;;15.10;99.90;;;;;;5031376;28;20550;-59
2021/08/05 07:04:35;;;;;;;3.27;2.97;;;15.20;99.90;;;;;;5028670;28;20278;-58
2021/08/05 07:07:01;;;;;;;5.67;3.00;;;15.20;99.90;;;;;;5018260;28;20180;-59
2021/08/05 07:09:26;;;;;;;3.10;2.77;;;15.30;99.90;;;;;;5010145;28;20183;-58
2021/08/05 07:11:52;;;;;;;8.90;3.10;;;15.30;99.90;;;;;;5011149;28;20452;-58
2021/08/05 07:14:18;;;;;;;4.20;3.47;;;15.40;99.90;;;;;;5023619;28;20188;-60
2021/08/05 07:16:43;;;;;;;4.20;3.50;;;15.50;99.90;;;;;;5024103;28;20176;-58
2021/08/05 07:19:09;;;;;;;3.77;2.97;;;15.60;99.90;;;;;;5025673;28;20237;-59
2021/08/05 07:21:35;;;;;;;5.30;3.00;;;15.60;99.90;;;;;;5030272;28;20211;-57
2021/08/05 07:24:00;;;;;;;4.70;2.60;;;15.70;99.90;;;;;;5032084;28;20632;-58
2021/08/05 07:26:26;;;;;;;3.30;3.00;;;15.70;99.90;;;;;;5031348;28;20176;-59
2021/08/05 07:28:52;;;;;;;3.50;2.77;;;15.70;99.90;;;;;;5027464;28;20203;-57
2021/08/05 07:31:17;;;;;;;4.50;2.90;;;15.70;99.90;;;;;;5026301;28;20243;-60
2021/08/05 07:33:44;;;;;;;11.80;2.83;;;15.80;99.90;;;;;;5021928;28;20342;-58
2021/08/05 07:36:09;;;;;;;4.80;2.80;;;15.80;99.90;;;;;;5025087;28;20821;-59
2021/08/05 07:38:35;;;;;;;5.43;2.97;;;15.90;99.90;;;;;;5023222;28;20473;-59
2021/08/05 07:41:01;;;;;;;2.23;2.03;;;16.00;99.90;;;;;;5023917;28;20176;-58
2021/08/05 07:43:27;;;;;;;3.77;2.37;;;16.10;99.90;;;;;;5024103;28;20657;-58
2021/08/05 07:45:53;;;;;;;2.03;1.90;;;16.10;99.90;;;;;;5022116;28;20513;-60
2021/08/05 07:48:19;;;;;;;2.97;2.67;;;16.20;99.90;;;;;;5023781;28;20757;-60
2021/08/05 07:50:45;;;;;;;4.73;2.63;;;16.30;99.90;;;;;;5022087;28;20430;-58
2021/08/05 07:53:10;;;;;;;3.23;2.70;;;16.30;99.90;;;;;;5022746;28;20242;-58
2021/08/05 07:55:36;;;;;;;4.30;2.93;;;16.40;99.90;;;;;;5020193;28;21073;-60
2021/08/05 07:58:02;;;;;;;3.57;2.60;;;16.60;99.90;;;;;;5021329;28;20203;-58
2021/08/05 08:00:27;;;;;;;3.20;2.37;;;16.60;99.90;;;;;;5020723;28;20184;-60
2021/08/05 08:02:53;;;;;;;3.63;2.60;;;16.80;99.90;;;;;;5024438;28;20188;-60
2021/08/05 08:05:19;;;;;;;1.80;1.70;;;17.00;99.90;;;;;;5021417;28;20222;-58
2021/08/05 08:07:44;;;;;;;1.97;1.80;;;17.20;99.90;;;;;;5024514;28;20235;-59
2021/08/05 08:10:12;;;;;;;2.17;1.97;;;17.40;99.90;;;;;;5023144;28;20180;-59
2021/08/05 08:12:38;;;;;;;2.40;2.20;;;17.50;99.90;;;;;;5020431;28;20742;-59
2021/08/05 08:15:04;;;;;;;2.97;1.60;;;17.60;99.90;;;;;;5021168;28;20434;-63
2021/08/05 08:17:30;;;;;;;2.43;1.80;;;17.70;99.90;;;;;;5023765;28;20466;-59
2021/08/05 08:19:56;;;;;;;1.97;1.77;;;17.70;99.90;;;;;;5021621;28;20415;-58
2021/08/05 08:22:21;;;;;;;2.10;1.63;;;17.70;98.60;;;;;;5024265;28;20187;-58
2021/08/05 08:24:47;;;;;;;2.67;2.10;;;17.50;98.80;;;;;;5021821;28;20180;-59
2021/08/05 08:27:12;;;;;;;2.17;1.67;;;17.40;99.80;;;;;;5017001;28;20685;-59
2021/08/05 08:29:38;;;;;;;2.30;1.83;;;17.40;99.90;;;;;;5023605;28;20179;-59
2021/08/05 08:32:04;;;;;;;2.53;1.90;;;17.50;99.90;;;;;;5021747;28;20210;-59
2021/08/05 08:34:29;;;;;;;3.83;2.23;;;17.60;99.90;;;;;;5020835;28;20184;-58
2021/08/05 08:36:55;;;;;;;2.30;1.73;;;17.80;99.90;;;;;;5020345;28;20186;-58
2021/08/05 08:39:23;;;;;;;1.90;1.80;;;17.90;99.90;;;;;;5022532;28;20603;-59
2021/08/05 08:41:50;;;;;;;3.13;2.07;;;17.90;99.00;;;;;;5021547;28;20590;-59
2021/08/05 08:44:16;;;;;;;1.63;1.40;;;17.90;99.10;;;;;;5022435;28;20816;-58
2021/08/05 08:46:45;;;;;;;2.63;2.10;;;17.90;97.90;;;;;;5019028;28;20993;-58
2021/08/05 08:49:11;;;;;;;2.33;1.90;;;17.80;98.60;;;;;;5015123;28;20952;-58
2021/08/05 08:51:37;;;;;;;5.00;1.70;;;17.80;99.60;;;;;;5006152;28;20898;-58
2021/08/05 08:54:08;;;;;;;5.67;1.80;;;17.80;99.90;;;;;;5022180;28;20199;-58
2021/08/05 08:56:36;;;;;;;1.93;1.70;;;17.90;98.70;;;;;;5024025;28;20821;-58
2021/08/05 08:59:02;;;;;;;2.13;2.00;;;17.90;99.20;;;;;;5024107;28;20522;-58
2021/08/05 09:01:30;;;;;;;3.20;2.03;;;17.90;99.20;;;;;;5014503;28;20431;-60
2021/08/05 09:03:55;;;;;;;2.67;1.90;;;17.80;99.30;;;;;;5020055;28;20186;-58
2021/08/05 09:06:21;;;;;;;4.73;1.87;;;17.80;99.30;;;;;;5023169;28;20799;-58
2021/08/05 09:08:49;;;;;;;3.50;1.93;;;17.80;99.50;;;;;;5021458;28;20277;-58
2021/08/05 09:11:14;;;;;;;4.00;2.17;;;17.80;99.50;;;;;;5022524;28;20250;-58
2021/08/05 09:13:41;;;;;;;2.37;1.90;;;17.80;99.90;;;;;;5020454;28;20438;-59
2021/08/05 09:16:31;;;;;;;1.77;1.67;;;17.90;99.90;;;;;;5020401;28;20210;-60
2021/08/05 09:19:19;;;;;;;3.90;1.90;;;18.10;99.60;;;;;;5019637;28;20455;-58
2021/08/05 09:21:53;;;;;;;2.40;1.93;;;18.20;99.20;;;;;;5018184;28;20459;-58
2021/08/05 09:24:28;;;;;;;2.87;1.77;;;18.40;97.60;;;;;;5019215;28;20529;-58
2021/08/05 09:26:57;;;;;;;1.60;1.50;;;18.60;97.10;;;;;;5014032;28;20967;-58
2021/08/05 09:29:24;;;;;;;2.63;1.50;;;18.60;97.10;;;;;;5019034;28;20442;-59
2021/08/05 09:31:49;;;;;;;3.20;1.67;;;18.60;96.60;;;;;;5023460;28;20494;-59
2021/08/05 09:36:59;;;;;;;3.10;1.60;;;18.40;96.60;;;;;;5102476;23;20230;-54
2021/08/05 09:39:27;;;;;;;2.60;1.80;;;18.30;96.90;;;;;;4993491;28;20438;-53
2021/08/05 09:41:57;;;;;;;1.90;1.70;;;18.20;97.70;;;;;;4998371;28;20458;-54
2021/08/05 09:44:24;;;;;;;2.30;1.90;;;18.20;97.70;;;;;;4996741;28;20435;-53
2021/08/05 09:47:24;;;;;;;2.93;2.00;;;18.30;98.30;;;;;;4998297;28;20447;-54
2021/08/05 09:49:50;;;;;;;1.70;1.60;;;18.30;98.10;;;;;;4998397;23;20527;-58
2021/08/05 09:52:31;;;;;;;1.87;1.70;;;18.40;98.10;;;;;;4977859;28;20910;-58
2021/08/05 09:54:58;;;;;;;1.80;1.60;;;18.60;98.70;;;;;;4977577;28;20181;-58
2021/08/05 09:57:31;;;;;;;1.70;1.60;;;18.70;97.30;;;;;;4980127;28;20903;-59
2021/08/05 09:59:58;;;;;;;2.63;1.40;;;18.80;95.90;;;;;;4980814;28;20459;-58
2021/08/05 10:02:25;;;;;;;2.63;1.50;;;18.80;96.50;;;;;;4985449;28;20439;-59
2021/08/05 10:04:52;;;;;;;1.93;1.60;;;18.80;96.60;;;;;;4979760;28;21065;-58
2021/08/05 10:07:18;;;;;;;2.73;1.87;;;18.80;96.30;;;;;;4979532;28;20487;-59
2021/08/05 10:09:45;;;;;;;2.57;1.77;;;18.90;96.60;;;;;;4983459;28;20864;-58
2021/08/05 10:12:31;;;;;;;1.80;1.50;;;19.00;95.10;;;;;;4977105;28;20499;-58
2021/08/05 10:15:13;;;;;;;1.73;1.30;;;19.00;94.50;;;;;;4978981;28;20436;-58
2021/08/05 10:17:40;;;;;;;1.53;1.43;;;19.00;94.50;;;;;;4981465;28;20431;-59
2021/08/05 10:20:12;;;;;;;2.90;1.67;;;19.10;94.00;;;;;;4975999;28;20956;-61
2021/08/05 10:22:40;;;;;;;1.87;1.77;;;19.20;94.50;;;;;;4980637;28;20448;-58
2021/08/05 10:25:10;;;;;;;4.47;1.63;;;19.40;95.00;;;;;;4977584;28;20460;-59
2021/08/05 10:27:36;;;;;;;1.90;1.70;;;19.50;93.60;;;;;;4978424;28;20474;-60
2021/08/05 10:30:06;;;;;;;3.10;1.67;;;19.60;93.90;;;;;;4976333;28;20462;-59
2021/08/05 10:32:33;;;;;;;1.53;1.43;;;19.80;94.20;;;;;;4954366;28;20465;-58
2021/08/05 10:35:00;;;;;;;1.80;1.47;;;20.00;94.10;;;;;;4979246;28;20779;-59
2021/08/05 10:37:26;;;;;;;1.43;1.33;;;20.00;91.90;;;;;;4978451;28;20436;-59
2021/08/05 10:39:52;;;;;;;1.83;1.73;;;20.00;91.80;;;;;;4978246;28;20464;-58
2021/08/05 10:42:19;;;;;;;2.37;1.80;;;19.90;92.20;;;;;;4977584;28;21180;-58
2021/08/05 10:44:49;;;;;;;3.53;1.73;;;19.90;92.10;;;;;;4976104;28;20458;-59
2021/08/05 10:47:25;;;;;;;2.00;1.83;;;20.10;94.70;;;;;;4978620;28;20439;-60
2021/08/05 10:49:55;;;;;;;1.70;1.40;;;20.10;95.30;;;;;;4980569;28;20820;-58
2021/08/05 10:52:36;;;;;;;2.10;1.80;;;20.10;94.00;;;;;;4985655;28;20954;-58
2021/08/05 10:55:15;;;;;;;1.77;1.60;;;20.00;92.80;;;;;;4982186;28;20440;-58
2021/08/05 10:57:42;;;;;;;2.97;1.93;;;19.90;93.70;;;;;;4981421;28;20436;-59
2021/08/05 11:00:11;;;;;;;1.77;1.67;;;19.90;94.30;;;;;;4978969;28;20484;-59
2021/08/05 11:02:52;;;;;;;1.80;1.63;;;19.90;94.40;;;;;;4976963;28;20436;-58
2021/08/05 11:05:24;;;;;;;1.93;1.80;;;19.80;94.50;;;;;;4982991;28;20522;-59
2021/08/05 11:07:50;;;;;;;1.60;1.50;;;19.90;95.30;;;;;;4983576;28;21102;-59
2021/08/05 11:10:19;;;;;;;3.23;1.70;;;20.10;94.30;;;;;;4983375;28;21047;-60
2021/08/05 11:12:48;;;;;;;1.50;1.40;;;20.10;92.00;;;;;;4981239;28;20820;-56
2021/08/05 11:15:33;;;;;;;1.63;1.53;;;20.00;91.70;;;;;;4976145;28;20440;-59
2021/08/05 11:18:14;;;;;;;3.80;1.80;;;20.00;92.60;;;;;;4982656;28;20746;-57
2021/08/05 11:20:43;;;;;;;2.10;1.90;;;20.00;93.60;;;;;;4979702;28;20456;-58
2021/08/05 11:23:34;;;;;;;4.07;2.10;;;20.00;93.90;;;;;;4977991;28;20432;-57
2021/08/05 11:26:00;;;;;;;5.00;1.80;;;20.00;94.80;;;;;;4981629;28;20427;-56
2021/08/05 11:28:26;;;;;;;2.57;2.10;;;20.00;94.70;;;;;;4980859;28;20798;-57
2021/08/05 11:30:56;;;;;;;2.00;1.80;;;20.00;94.60;;;;;;4980323;28;20210;-58
2021/08/05 11:33:37;;;;;;;3.13;2.00;;;19.90;94.70;;;;;;4977278;28;20181;-59
2021/08/05 11:39:05;;;;;;;2.13;1.90;;;19.70;95.80;;;;;;4979352;28;20440;-58
2021/08/05 11:41:47;;;;;;;3.83;2.37;;;19.50;95.50;;;;;;4980497;28;20502;-56
2021/08/05 11:44:18;;;;;;;2.07;1.70;;;19.50;96.90;;;;;;4978127;28;20441;-57
2021/08/05 11:46:47;;;;;;;2.13;1.93;;;19.70;97.90;;;;;;4977506;28;20467;-58
2021/08/05 11:49:33;;;;;;;3.30;2.00;;;20.00;97.00;;;;;;4976572;28;20511;-57
2021/08/05 11:52:06;;;;;;;2.67;2.30;;;20.40;98.20;;;;;;4981798;28;20463;-61
2021/08/05 11:54:32;;;;;;;3.80;2.30;;;20.70;96.20;;;;;;4979449;28;20433;-58
2021/08/05 11:57:02;;;;;;;2.10;1.90;;;21.00;93.80;;;;;;4979090;28;20437;-56
2021/08/05 11:59:45;;;;;;;2.50;2.20;;;21.30;91.60;;;;;;4981694;28;20475;-59
2021/08/05 12:02:16;;;;;;;2.77;2.07;;;21.50;91.90;;;;;;4980922;28;20441;-59
2021/08/05 12:04:42;;;;;;;3.43;1.93;;;21.50;90.90;;;;;;4982699;28;20888;-58
2021/08/05 12:07:29;;;;;;;2.80;2.00;;;21.30;91.00;;;;;;4978986;28;20425;-58
2021/08/05 12:10:13;;;;;;;2.80;2.30;;;21.20;91.80;;;;;;4982774;28;20849;-58
2021/08/05 12:12:54;;;;;;;2.30;2.00;;;21.10;92.70;;;;;;4979215;28;20507;-57
2021/08/05 12:15:29;;;;;;;1.60;1.50;;;21.00;92.60;;;;;;4982542;28;20478;-58
2021/08/05 12:18:04;;;;;;;3.10;1.80;;;21.00;91.90;;;;;;4979880;28;20425;-58
2021/08/05 12:20:36;;;;;;;1.63;1.53;;;21.30;93.80;;;;;;4982727;28;20519;-58
2021/08/05 12:23:06;;;;;;;2.00;1.80;;;21.90;84.80;;;;;;4979795;28;20425;-57
2021/08/05 12:25:33;;;;;;;2.10;1.90;;;22.10;69.60;;;;;;4982382;28;20847;-57
2021/08/05 12:28:17;;;;;;;2.03;1.83;;;22.20;66.60;;;;;;4980929;28;20428;-57
2021/08/05 12:30:47;;;;;;;2.40;2.20;;;22.20;64.00;;;;;;4978228;28;20464;-58
2021/08/05 12:33:24;;;;;;;3.67;1.70;;;22.20;66.50;;;;;;4979768;28;21240;-58
2021/08/05 12:36:16;;;;;;;2.00;1.90;;;22.50;66.80;;;;;;4981239;28;20459;-59
2021/08/05 12:38:51;;;;;;;2.10;1.90;;;22.70;68.20;;;;;;4991302;28;20432;-61
2021/08/05 12:41:18;;;;;;;3.80;1.70;;;22.80;69.80;;;;;;4972992;28;20452;-62
2021/08/05 12:43:44;;;;;;;2.17;2.00;;;22.70;68.40;;;;;;4975829;28;20490;-60
2021/08/05 12:46:10;;;;;;;1.80;1.70;;;22.50;69.70;;;;;;4977964;28;20184;-59
2021/08/05 12:48:38;;;;;;;2.47;1.90;;;22.20;68.70;;;;;;4973783;28;20440;-63
2021/08/05 12:51:04;;;;;;;2.03;1.83;;;21.80;68.10;;;;;;4973044;28;20461;-60
2021/08/05 12:53:32;;;;;;;2.87;2.23;;;21.50;68.90;;;;;;4980950;28;20440;-60
2021/08/05 12:56:00;;;;;;;2.10;2.00;;;21.20;75.10;;;;;;4978421;28;20436;-60
2021/08/05 12:58:29;;;;;;;2.50;2.20;;;21.00;83.10;;;;;;4974813;28;20432;-60
2021/08/05 13:01:13;;;;;;;2.70;2.27;;;20.80;88.50;;;;;;4979652;28;20454;-60
2021/08/05 13:03:41;;;;;;;2.50;2.30;;;20.70;89.10;;;;;;4977020;28;21077;-61
2021/08/05 13:06:07;;;;;;;3.90;3.27;;;20.50;90.20;;;;;;4976726;28;20436;-59
2021/08/05 13:08:36;;;;;;;4.63;2.80;;;20.40;90.80;;;;;;4971851;28;20746;-60
2021/08/05 13:11:08;;;;;;;2.90;1.87;;;20.30;90.90;;;;;;4976943;28;20714;-59